OIZJ  Jask  Airport

Jask, Iran

Add Bookmark
ICAO OIZJ
Type Airport
Status Operational
Latitude
25° 39' 12" N
25.653601
Longitude
57° 47' 57" E
57.799301
Local (GMT +3.5 ) UTC
Sep 28, 2016 12:07 am Sep 27, 2016 20:37
Sunrise-Sunset Local UTC
Begin Civil Twilight 05:05 am 01:35
Sunrise 05:28 am 01:58
Sunset 05:29 pm 13:59
End Civil Twilight 05:52 pm 14:22
VFR
VFR
MVFR
MVFR
IFR
IFR
LIFR
LIFR
Unknown
Unavailable

Current Weather

METAR Observed MVFR
OIZJ 271800Z 28004KT 7000 NSC 30/27 Q1007 Tue, Sep 27, 2016 @ 18:00 UTC
(2 Hours, 37 Minutes ago)
Marginal Visual Flight Rules
Wind Visibility Conditions
280° at 4 knots (7 kph) 7,001 m
  • No significant weather
Temperatures Readings Precipitation
Current Temp
30°C
86°F
Dewpoint
27°C
81°F
Heat Index
39°C
102°
Humidity 84%
Altimeter 29.73" Hg
Sea Level Pressure 1,007 mb
Field Elevation
4 m
13 ft
None Recorded
-
-

CheckWX.com is intended as a tool to help pilots better visualize weather data. It is not intended as a substitute for an official weather briefing obtained from a Flight Service Station. CheckWX.com does not meet the FAA requirements for an official pre-flight weather briefing. Therefore, it's important that pilots still call and obtain an official FSS pre-flight weather briefing.

© 2007-2016 CheckWX.com
20:37:36 UTC